sensor_id;sensor_type;location;lat;lon;timestamp;pressure;altitude;pressure_sealevel;temperature;humidity
82458;BME280;72081;48.870;11.074;2024-02-23T00:00:47;95117.69;;;7.31;93.01
82458;BME280;72081;48.870;11.074;2024-02-23T00:03:12;95117.41;;;7.27;92.90
82458;BME280;72081;48.870;11.074;2024-02-23T00:05:37;95122.44;;;7.24;93.66
82458;BME280;72081;48.870;11.074;2024-02-23T00:08:03;95124.56;;;7.22;93.53
82458;BME280;72081;48.870;11.074;2024-02-23T00:10:28;95127.47;;;7.20;93.38
82458;BME280;72081;48.870;11.074;2024-02-23T00:12:53;95124.28;;;7.18;94.35
82458;BME280;72081;48.870;11.074;2024-02-23T00:15:19;95145.50;;;7.18;93.91
82458;BME280;72081;48.870;11.074;2024-02-23T00:17:44;95141.81;;;7.19;92.34
82458;BME280;72081;48.870;11.074;2024-02-23T00:20:10;95152.16;;;7.21;92.04
82458;BME280;72081;48.870;11.074;2024-02-23T00:22:40;95158.25;;;7.21;94.21
82458;BME280;72081;48.870;11.074;2024-02-23T00:25:05;95159.84;;;7.17;93.59
82458;BME280;72081;48.870;11.074;2024-02-23T00:27:31;95161.69;;;7.22;93.35
82458;BME280;72081;48.870;11.074;2024-02-23T00:29:56;95172.06;;;7.23;93.28
82458;BME280;72081;48.870;11.074;2024-02-23T00:32:21;95187.72;;;7.25;93.90
82458;BME280;72081;48.870;11.074;2024-02-23T00:34:46;95222.19;;;7.25;93.72
82458;BME280;72081;48.870;11.074;2024-02-23T00:37:12;95273.56;;;6.72;89.10
82458;BME280;72081;48.870;11.074;2024-02-23T00:39:37;95266.16;;;6.15;90.33
82458;BME280;72081;48.870;11.074;2024-02-23T00:42:03;95280.38;;;5.82;93.73
82458;BME280;72081;48.870;11.074;2024-02-23T00:44:28;95271.50;;;5.71;94.75
82458;BME280;72081;48.870;11.074;2024-02-23T00:46:53;95291.66;;;5.55;92.63
82458;BME280;72081;48.870;11.074;2024-02-23T00:49:19;95298.81;;;5.55;94.66
82458;BME280;72081;48.870;11.074;2024-02-23T00:51:44;95301.41;;;5.49;93.92
82458;BME280;72081;48.870;11.074;2024-02-23T00:54:09;95305.19;;;5.37;94.64
82458;BME280;72081;48.870;11.074;2024-02-23T00:56:34;95308.06;;;5.35;94.93
82458;BME280;72081;48.870;11.074;2024-02-23T00:59:00;95315.63;;;5.27;93.54
82458;BME280;72081;48.870;11.074;2024-02-23T01:01:26;95321.06;;;5.20;94.25
82458;BME280;72081;48.870;11.074;2024-02-23T01:03:51;95341.44;;;5.19;93.69
82458;BME280;72081;48.870;11.074;2024-02-23T01:06:17;95332.94;;;5.17;93.67
82458;BME280;72081;48.870;11.074;2024-02-23T01:08:42;95339.94;;;5.07;93.50
82458;BME280;72081;48.870;11.074;2024-02-23T01:11:07;95333.06;;;5.06;94.52
82458;BME280;72081;48.870;11.074;2024-02-23T01:13:33;95327.91;;;4.99;92.91
82458;BME280;72081;48.870;11.074;2024-02-23T01:15:58;95325.75;;;4.96;94.10
82458;BME280;72081;48.870;11.074;2024-02-23T01:18:23;95316.16;;;5.07;95.30
82458;BME280;72081;48.870;11.074;2024-02-23T01:20:49;95320.09;;;5.04;93.10
82458;BME280;72081;48.870;11.074;2024-02-23T01:23:14;95316.88;;;5.02;93.44
82458;BME280;72081;48.870;11.074;2024-02-23T01:25:39;95320.09;;;5.04;93.62
82458;BME280;72081;48.870;11.074;2024-02-23T01:28:06;95325.28;;;4.99;91.53
82458;BME280;72081;48.870;11.074;2024-02-23T01:30:31;95323.53;;;5.05;92.89
82458;BME280;72081;48.870;11.074;2024-02-23T01:32:56;95318.25;;;5.05;92.47
82458;BME280;72081;48.870;11.074;2024-02-23T01:35:21;95322.38;;;5.01;92.17
82458;BME280;72081;48.870;11.074;2024-02-23T01:37:47;95322.97;;;5.03;90.23
82458;BME280;72081;48.870;11.074;2024-02-23T01:40:12;95325.75;;;4.96;90.24
82458;BME280;72081;48.870;11.074;2024-02-23T01:42:38;95331.84;;;4.97;91.25
82458;BME280;72081;48.870;11.074;2024-02-23T01:45:03;95328.81;;;5.05;92.86
82458;BME280;72081;48.870;11.074;2024-02-23T01:47:29;95337.44;;;5.00;90.01
82458;BME280;72081;48.870;11.074;2024-02-23T01:49:57;95343.22;;;4.97;89.75
82458;BME280;72081;48.870;11.074;2024-02-23T01:52:23;95338.91;;;4.91;90.28
82458;BME280;72081;48.870;11.074;2024-02-23T01:54:48;95329.19;;;4.97;90.28
82458;BME280;72081;48.870;11.074;2024-02-23T01:58:35;95345.16;;;5.02;91.63
82458;BME280;72081;48.870;11.074;2024-02-23T02:01:01;95344.91;;;5.03;91.49
82458;BME280;72081;48.870;11.074;2024-02-23T02:03:26;95342.34;;;5.08;92.76
82458;BME280;72081;48.870;11.074;2024-02-23T02:05:52;95351.56;;;5.06;90.99
82458;BME280;72081;48.870;11.074;2024-02-23T02:08:21;95358.94;;;5.04;90.90
82458;BME280;72081;48.870;11.074;2024-02-23T02:10:47;95345.16;;;5.02;90.91
82458;BME280;72081;48.870;11.074;2024-02-23T02:13:12;95341.78;;;5.06;92.21
82458;BME280;72081;48.870;11.074;2024-02-23T02:15:38;95347.63;;;5.08;91.48
82458;BME280;72081;48.870;11.074;2024-02-23T02:18:04;95359.56;;;5.11;91.65
82458;BME280;72081;48.870;11.074;2024-02-23T02:20:32;95374.00;;;5.03;89.59
82458;BME280;72081;48.870;11.074;2024-02-23T02:22:57;95374.31;;;5.07;92.26
82458;BME280;72081;48.870;11.074;2024-02-23T02:25:23;95380.72;;;5.11;92.12
82458;BME280;72081;48.870;11.074;2024-02-23T02:27:48;95380.63;;;5.06;89.20
82458;BME280;72081;48.870;11.074;2024-02-23T02:30:14;95388.09;;;5.09;91.13
82458;BME280;72081;48.870;11.074;2024-02-23T02:32:39;95393.75;;;5.01;89.53
82458;BME280;72081;48.870;11.074;2024-02-23T02:35:05;95391.69;;;5.03;90.06
82458;BME280;72081;48.870;11.074;2024-02-23T02:37:30;95388.47;;;5.01;89.75
82458;BME280;72081;48.870;11.074;2024-02-23T02:39:55;95393.53;;;5.02;88.88
82458;BME280;72081;48.870;11.074;2024-02-23T02:42:21;95400.88;;;5.00;89.71
82458;BME280;72081;48.870;11.074;2024-02-23T02:44:46;95404.31;;;5.01;89.90
82458;BME280;72081;48.870;11.074;2024-02-23T02:47:11;95401.69;;;5.01;89.36
82458;BME280;72081;48.870;11.074;2024-02-23T02:49:37;95401.69;;;5.01;90.12
82458;BME280;72081;48.870;11.074;2024-02-23T02:52:02;95388.31;;;5.07;91.05
82458;BME280;72081;48.870;11.074;2024-02-23T02:54:27;95378.78;;;5.06;89.87
82458;BME280;72081;48.870;11.074;2024-02-23T02:56:52;95378.00;;;5.06;89.62
82458;BME280;72081;48.870;11.074;2024-02-23T02:59:20;95384.81;;;5.02;88.40
82458;BME280;72081;48.870;11.074;2024-02-23T03:01:45;95380.22;;;4.97;89.26
82458;BME280;72081;48.870;11.074;2024-02-23T03:04:13;95398.97;;;4.96;89.05
82458;BME280;72081;48.870;11.074;2024-02-23T03:06:39;95396.81;;;4.93;87.25
82458;BME280;72081;48.870;11.074;2024-02-23T03:09:04;95392.78;;;4.90;88.66
82458;BME280;72081;48.870;11.074;2024-02-23T03:11:30;95401.03;;;4.94;88.51
82458;BME280;72081;48.870;11.074;2024-02-23T03:13:55;95405.53;;;4.93;88.31
82458;BME280;72081;48.870;11.074;2024-02-23T03:16:21;95410.81;;;4.93;89.41
82458;BME280;72081;48.870;11.074;2024-02-23T03:18:48;95409.53;;;4.96;89.23
82458;BME280;72081;48.870;11.074;2024-02-23T03:21:14;95417.53;;;5.01;89.92
82458;BME280;72081;48.870;11.074;2024-02-23T03:23:40;95418.81;;;4.98;90.06
82458;BME280;72081;48.870;11.074;2024-02-23T03:26:07;95429.63;;;4.97;90.95
82458;BME280;72081;48.870;11.074;2024-02-23T03:28:33;95425.63;;;4.94;91.47
82458;BME280;72081;48.870;11.074;2024-02-23T03:31:00;95407.94;;;4.95;90.60
82458;BME280;72081;48.870;11.074;2024-02-23T03:33:25;95416.41;;;4.97;92.10
82458;BME280;72081;48.870;11.074;2024-02-23T03:35:51;95423.47;;;4.91;92.53
82458;BME280;72081;48.870;11.074;2024-02-23T03:38:16;95417.31;;;4.85;92.67
82458;BME280;72081;48.870;11.074;2024-02-23T03:40:41;95417.63;;;4.89;94.95
82458;BME280;72081;48.870;11.074;2024-02-23T03:43:07;95411.66;;;4.82;91.74
82458;BME280;72081;48.870;11.074;2024-02-23T03:45:33;95408.22;;;4.81;92.74
82458;BME280;72081;48.870;11.074;2024-02-23T03:47:59;95407.44;;;4.81;92.77
82458;BME280;72081;48.870;11.074;2024-02-23T03:50:24;95415.47;;;4.86;92.95
82458;BME280;72081;48.870;11.074;2024-02-23T03:52:50;95412.25;;;4.84;93.27
82458;BME280;72081;48.870;11.074;2024-02-23T03:55:15;95405.50;;;4.76;91.32
82458;BME280;72081;48.870;11.074;2024-02-23T03:57:40;95400.94;;;4.72;91.18
82458;BME280;72081;48.870;11.074;2024-02-23T04:00:06;95403.03;;;4.70;92.13
82458;BME280;72081;48.870;11.074;2024-02-23T04:02:33;95395.09;;;4.70;91.94
82458;BME280;72081;48.870;11.074;2024-02-23T04:04:59;95391.47;;;4.59;92.03
82458;BME280;72081;48.870;11.074;2024-02-23T04:07:24;95392.81;;;4.62;92.61
82458;BME280;72081;48.870;11.074;2024-02-23T04:09:49;95401.91;;;4.66;92.54
82458;BME280;72081;48.870;11.074;2024-02-23T04:12:18;95408.53;;;4.68;93.76
82458;BME280;72081;48.870;11.074;2024-02-23T04:14:44;95413.09;;;4.73;93.55
82458;BME280;72081;48.870;11.074;2024-02-23T04:17:11;95414.16;;;4.72;93.55
82458;BME280;72081;48.870;11.074;2024-02-23T04:19:37;95420.72;;;4.69;93.08
82458;BME280;72081;48.870;11.074;2024-02-23T04:22:02;95431.53;;;4.68;93.93
82458;BME280;72081;48.870;11.074;2024-02-23T04:24:28;95433.03;;;4.64;93.92
82458;BME280;72081;48.870;11.074;2024-02-23T04:26:53;95443.38;;;4.65;94.02
82458;BME280;72081;48.870;11.074;2024-02-23T04:29:18;95453.38;;;4.63;93.73
82458;BME280;72081;48.870;11.074;2024-02-23T04:31:43;95449.56;;;4.59;93.86
82458;BME280;72081;48.870;11.074;2024-02-23T04:34:09;95450.50;;;4.65;94.47
82458;BME280;72081;48.870;11.074;2024-02-23T04:36:34;95449.22;;;4.67;94.56
82458;BME280;72081;48.870;11.074;2024-02-23T04:38:59;95453.78;;;4.72;94.46
82458;BME280;72081;48.870;11.074;2024-02-23T04:41:24;95452.53;;;4.63;93.80
82458;BME280;72081;48.870;11.074;2024-02-23T04:43:50;95465.53;;;4.64;94.34
82458;BME280;72081;48.870;11.074;2024-02-23T04:47:19;95462.78;;;4.59;94.49
82458;BME280;72081;48.870;11.074;2024-02-23T04:49:44;95475.31;;;4.64;94.75
82458;BME280;72081;48.870;11.074;2024-02-23T04:52:10;95468.88;;;4.60;95.27
82458;BME280;72081;48.870;11.074;2024-02-23T04:54:35;95468.91;;;4.48;95.78
82458;BME280;72081;48.870;11.074;2024-02-23T04:57:00;95463.16;;;4.51;96.88
82458;BME280;72081;48.870;11.074;2024-02-23T04:59:26;95470.63;;;4.54;95.71
82458;BME280;72081;48.870;11.074;2024-02-23T05:01:51;95464.28;;;4.55;95.64
82458;BME280;72081;48.870;11.074;2024-02-23T05:04:16;95461.19;;;4.58;95.65
82458;BME280;72081;48.870;11.074;2024-02-23T05:06:42;95443.50;;;4.58;94.46
82458;BME280;72081;48.870;11.074;2024-02-23T05:09:08;95441.41;;;4.61;94.76
82458;BME280;72081;48.870;11.074;2024-02-23T05:11:34;95445.66;;;4.62;94.48
82458;BME280;72081;48.870;11.074;2024-02-23T05:13:59;95449.34;;;4.61;94.41
82458;BME280;72081;48.870;11.074;2024-02-23T05:16:25;95446.03;;;4.53;94.99
82458;BME280;72081;48.870;11.074;2024-02-23T05:18:50;95447.88;;;4.53;95.67
82458;BME280;72081;48.870;11.074;2024-02-23T05:21:15;95452.84;;;4.49;94.55
82458;BME280;72081;48.870;11.074;2024-02-23T05:23:41;95446.19;;;4.47;95.66
82458;BME280;72081;48.870;11.074;2024-02-23T05:26:07;95446.44;;;4.45;94.72
82458;BME280;72081;48.870;11.074;2024-02-23T05:28:32;95447.22;;;4.46;94.51
82458;BME280;72081;48.870;11.074;2024-02-23T05:30:57;95431.03;;;4.42;95.19
82458;BME280;72081;48.870;11.074;2024-02-23T05:33:23;95445.84;;;4.43;95.39
82458;BME280;72081;48.870;11.074;2024-02-23T05:35:49;95457.00;;;4.45;95.73
82458;BME280;72081;48.870;11.074;2024-02-23T05:38:15;95452.63;;;4.39;95.17
82458;BME280;72081;48.870;11.074;2024-02-23T05:40:40;95459.97;;;4.37;95.78
82458;BME280;72081;48.870;11.074;2024-02-23T05:43:06;95462.06;;;4.35;96.02
82458;BME280;72081;48.870;11.074;2024-02-23T05:45:31;95472.94;;;4.39;96.16
82458;BME280;72081;48.870;11.074;2024-02-23T05:47:56;95476.28;;;4.34;96.12
82458;BME280;72081;48.870;11.074;2024-02-23T05:50:21;95476.53;;;4.33;96.27
82458;BME280;72081;48.870;11.074;2024-02-23T05:52:47;95482.75;;;4.26;96.69
82458;BME280;72081;48.870;11.074;2024-02-23T05:55:12;95482.06;;;4.19;96.49
82458;BME280;72081;48.870;11.074;2024-02-23T05:57:37;95488.16;;;4.20;97.03
82458;BME280;72081;48.870;11.074;2024-02-23T06:00:04;95492.38;;;4.21;97.89
82458;BME280;72081;48.870;11.074;2024-02-23T06:02:29;95501.47;;;4.25;97.57
82458;BME280;72081;48.870;11.074;2024-02-23T06:04:54;95495.38;;;4.24;96.89
82458;BME280;72081;48.870;11.074;2024-02-23T06:07:20;95501.47;;;4.25;96.44
82458;BME280;72081;48.870;11.074;2024-02-23T06:09:52;95502.72;;;4.22;97.05
82458;BME280;72081;48.870;11.074;2024-02-23T06:12:17;95506.97;;;4.23;97.84
82458;BME280;72081;48.870;11.074;2024-02-23T06:14:42;95520.84;;;4.19;96.46
82458;BME280;72081;48.870;11.074;2024-02-23T06:17:07;95520.84;;;4.19;96.62
82458;BME280;72081;48.870;11.074;2024-02-23T06:19:33;95525.09;;;4.20;96.15
82458;BME280;72081;48.870;11.074;2024-02-23T06:21:58;95522.34;;;4.15;96.86
82458;BME280;72081;48.870;11.074;2024-02-23T06:24:24;95516.66;;;4.06;96.70
82458;BME280;72081;48.870;11.074;2024-02-23T06:26:49;95504.69;;;4.04;97.09
82458;BME280;72081;48.870;11.074;2024-02-23T06:29:14;95512.72;;;3.97;97.61
82458;BME280;72081;48.870;11.074;2024-02-23T06:31:40;95519.47;;;4.05;97.44
82458;BME280;72081;48.870;11.074;2024-02-23T06:34:06;95529.25;;;4.04;96.90
82458;BME280;72081;48.870;11.074;2024-02-23T06:36:32;95540.25;;;4.01;96.87
82458;BME280;72081;48.870;11.074;2024-02-23T06:38:57;95532.47;;;4.06;96.81
82458;BME280;72081;48.870;11.074;2024-02-23T06:41:22;95532.47;;;4.06;97.25
82458;BME280;72081;48.870;11.074;2024-02-23T06:43:48;95548.53;;;4.05;97.87
82458;BME280;72081;48.870;11.074;2024-02-23T06:46:13;95560.81;;;4.11;97.40
82458;BME280;72081;48.870;11.074;2024-02-23T06:48:38;95552.56;;;4.07;96.79
82458;BME280;72081;48.870;11.074;2024-02-23T06:51:04;95558.88;;;4.06;97.35
82458;BME280;72081;48.870;11.074;2024-02-23T06:53:30;95555.78;;;4.09;97.23
82458;BME280;72081;48.870;11.074;2024-02-23T06:55:55;95556.09;;;4.01;97.08
82458;BME280;72081;48.870;11.074;2024-02-23T06:58:21;95553.47;;;4.01;97.94
82458;BME280;72081;48.870;11.074;2024-02-23T07:00:46;95548.66;;;3.98;97.85
82458;BME280;72081;48.870;11.074;2024-02-23T07:03:11;95547.28;;;3.95;97.78
82458;BME280;72081;48.870;11.074;2024-02-23T07:05:37;95537.50;;;3.84;97.19
82458;BME280;72081;48.870;11.074;2024-02-23T07:08:02;95539.34;;;3.72;97.43
82458;BME280;72081;48.870;11.074;2024-02-23T07:10:28;95539.22;;;3.79;98.29
82458;BME280;72081;48.870;11.074;2024-02-23T07:12:54;95534.78;;;3.91;98.47
82458;BME280;72081;48.870;11.074;2024-02-23T07:15:21;95522.25;;;3.98;98.82
82458;BME280;72081;48.870;11.074;2024-02-23T07:17:46;95530.28;;;4.03;98.04
82458;BME280;72081;48.870;11.074;2024-02-23T07:20:12;95531.44;;;4.07;97.36
82458;BME280;72081;48.870;11.074;2024-02-23T07:22:37;95541.63;;;4.15;97.19
82458;BME280;72081;48.870;11.074;2024-02-23T07:25:03;95551.03;;;4.23;97.21
82458;BME280;72081;48.870;11.074;2024-02-23T07:27:30;95565.63;;;4.25;96.86
82458;BME280;72081;48.870;11.074;2024-02-23T07:29:56;95572.84;;;4.18;96.94
82458;BME280;72081;48.870;11.074;2024-02-23T07:32:21;95576.06;;;4.20;96.92
82458;BME280;72081;48.870;11.074;2024-02-23T07:36:06;95576.75;;;4.16;96.85
82458;BME280;72081;48.870;11.074;2024-02-23T07:38:31;95581.81;;;4.17;97.84
82458;BME280;72081;48.870;11.074;2024-02-23T07:40:56;95579.88;;;4.13;98.54
82458;BME280;72081;48.870;11.074;2024-02-23T07:43:23;95582.28;;;4.14;98.14
82458;BME280;72081;48.870;11.074;2024-02-23T07:45:49;95573.31;;;4.15;98.24
82458;BME280;72081;48.870;11.074;2024-02-23T07:48:14;95570.22;;;4.18;97.65
82458;BME280;72081;48.870;11.074;2024-02-23T07:50:40;95569.50;;;4.23;97.07
82458;BME280;72081;48.870;11.074;2024-02-23T07:53:05;95569.88;;;4.26;97.88
82458;BME280;72081;48.870;11.074;2024-02-23T07:55:31;95571.81;;;4.31;97.84
82458;BME280;72081;48.870;11.074;2024-02-23T07:57:56;95576.97;;;4.38;97.84
82458;BME280;72081;48.870;11.074;2024-02-23T08:00:26;95561.59;;;4.23;96.68
82458;BME280;72081;48.870;11.074;2024-02-23T08:02:51;95563.22;;;4.12;97.73
82458;BME280;72081;48.870;11.074;2024-02-23T08:05:16;95559.19;;;4.21;97.79
82458;BME280;72081;48.870;11.074;2024-02-23T08:07:42;95557.34;;;4.34;98.32
82458;BME280;72081;48.870;11.074;2024-02-23T08:10:07;95558.25;;;4.39;97.82
82458;BME280;72081;48.870;11.074;2024-02-23T08:12:34;95572.72;;;4.48;98.19
82458;BME280;72081;48.870;11.074;2024-02-23T08:14:59;95564.56;;;4.50;96.85
82458;BME280;72081;48.870;11.074;2024-02-23T08:17:25;95554.94;;;4.44;95.50
82458;BME280;72081;48.870;11.074;2024-02-23T08:19:51;95558.00;;;4.52;96.71
82458;BME280;72081;48.870;11.074;2024-02-23T08:22:16;95550.31;;;4.51;96.67
82458;BME280;72081;48.870;11.074;2024-02-23T08:24:41;95553.28;;;4.54;96.64
82458;BME280;72081;48.870;11.074;2024-02-23T08:27:07;95558.00;;;4.52;95.99
82458;BME280;72081;48.870;11.074;2024-02-23T08:29:32;95561.56;;;4.58;96.35
82458;BME280;72081;48.870;11.074;2024-02-23T08:31:57;95569.81;;;4.62;96.07
82458;BME280;72081;48.870;11.074;2024-02-23T08:34:22;95580.50;;;4.67;96.10
82458;BME280;72081;48.870;11.074;2024-02-23T08:36:48;95573.72;;;4.59;94.87
82458;BME280;72081;48.870;11.074;2024-02-23T08:39:13;95574.75;;;4.58;94.70
82458;BME280;72081;48.870;11.074;2024-02-23T08:41:38;95579.47;;;4.68;95.57
82458;BME280;72081;48.870;11.074;2024-02-23T08:44:04;95579.09;;;4.76;94.79
82458;BME280;72081;48.870;11.074;2024-02-23T08:46:29;95568.41;;;4.82;95.08
82458;BME280;72081;48.870;11.074;2024-02-23T08:48:55;95574.34;;;4.90;94.49
82458;BME280;72081;48.870;11.074;2024-02-23T08:51:20;95577.09;;;4.95;94.26
82458;BME280;72081;48.870;11.074;2024-02-23T08:53:45;95572.94;;;4.99;94.25
82458;BME280;72081;48.870;11.074;2024-02-23T08:56:13;95564.75;;;5.00;94.29
82458;BME280;72081;48.870;11.074;2024-02-23T08:58:41;95571.78;;;5.06;93.88
82458;BME280;72081;48.870;11.074;2024-02-23T09:01:06;95582.09;;;5.08;93.92
82458;BME280;72081;48.870;11.074;2024-02-23T09:03:31;95595.31;;;5.08;93.90
82458;BME280;72081;48.870;11.074;2024-02-23T09:05:57;95600.53;;;5.03;93.38
82458;BME280;72081;48.870;11.074;2024-02-23T09:08:22;95602.00;;;4.99;93.25
82458;BME280;72081;48.870;11.074;2024-02-23T09:10:48;95605.81;;;5.03;93.25
82458;BME280;72081;48.870;11.074;2024-02-23T09:13:13;95595.44;;;5.01;92.68
82458;BME280;72081;48.870;11.074;2024-02-23T09:15:39;95598.44;;;5.05;93.39
82458;BME280;72081;48.870;11.074;2024-02-23T09:18:04;95607.19;;;5.05;93.03
82458;BME280;72081;48.870;11.074;2024-02-23T09:20:29;95607.97;;;5.06;93.29
82458;BME280;72081;48.870;11.074;2024-02-23T09:22:55;95602.94;;;5.04;93.48
82458;BME280;72081;48.870;11.074;2024-02-23T09:25:20;95603.16;;;5.03;93.84
82458;BME280;72081;48.870;11.074;2024-02-23T09:27:46;95604.28;;;5.07;93.25
82458;BME280;72081;48.870;11.074;2024-02-23T09:30:14;95606.84;;;5.02;93.33
82458;BME280;72081;48.870;11.074;2024-02-23T09:32:42;95608.44;;;5.03;94.06
82458;BME280;72081;48.870;11.074;2024-02-23T09:35:09;95611.91;;;5.03;94.15
82458;BME280;72081;48.870;11.074;2024-02-23T09:37:35;95609.81;;;5.05;93.16
82458;BME280;72081;48.870;11.074;2024-02-23T09:40:00;95595.91;;;4.98;92.92
82458;BME280;72081;48.870;11.074;2024-02-23T09:42:28;95581.78;;;5.04;93.26
82458;BME280;72081;48.870;11.074;2024-02-23T09:44:57;95589.00;;;5.09;92.72
82458;BME280;72081;48.870;11.074;2024-02-23T09:47:25;95607.50;;;5.09;92.01
82458;BME280;72081;48.870;11.074;2024-02-23T09:49:52;95611.75;;;5.10;92.17
82458;BME280;72081;48.870;11.074;2024-02-23T09:52:18;95618.41;;;5.12;92.30
82458;BME280;72081;48.870;11.074;2024-02-23T09:54:44;95614.97;;;5.12;92.12
82458;BME280;72081;48.870;11.074;2024-02-23T09:57:10;95617.59;;;5.12;91.92
82458;BME280;72081;48.870;11.074;2024-02-23T09:59:35;95613.91;;;5.13;92.36
82458;BME280;72081;48.870;11.074;2024-02-23T10:02:02;95610.56;;;5.17;92.16
82458;BME280;72081;48.870;11.074;2024-02-23T10:04:31;95608.28;;;5.21;91.65
82458;BME280;72081;48.870;11.074;2024-02-23T10:06:56;95600.47;;;5.14;91.15
82458;BME280;72081;48.870;11.074;2024-02-23T10:09:21;95607.13;;;5.17;90.64
82458;BME280;72081;48.870;11.074;2024-02-23T10:11:53;95609.88;;;5.22;90.73
82458;BME280;72081;48.870;11.074;2024-02-23T10:14:20;95618.38;;;5.24;91.23
82458;BME280;72081;48.870;11.074;2024-02-23T10:16:45;95618.94;;;5.26;90.77
82458;BME280;72081;48.870;11.074;2024-02-23T10:19:10;95621.59;;;5.26;90.66
82458;BME280;72081;48.870;11.074;2024-02-23T10:21:35;95626.63;;;5.28;90.72
82458;BME280;72081;48.870;11.074;2024-02-23T10:24:53;95623.84;;;5.34;90.90
82458;BME280;72081;48.870;11.074;2024-02-23T10:27:18;95618.78;;;5.33;90.82
82458;BME280;72081;48.870;11.074;2024-02-23T10:29:44;95613.25;;;5.34;90.66
82458;BME280;72081;48.870;11.074;2024-02-23T10:32:14;95612.69;;;5.32;90.04
82458;BME280;72081;48.870;11.074;2024-02-23T10:34:42;95611.66;;;5.33;89.72
82458;BME280;72081;48.870;11.074;2024-02-23T10:37:07;95613.75;;;5.31;89.20
82458;BME280;72081;48.870;11.074;2024-02-23T10:39:37;95621.53;;;5.38;90.65
82458;BME280;72081;48.870;11.074;2024-02-23T10:42:04;95615.19;;;5.39;89.83
82458;BME280;72081;48.870;11.074;2024-02-23T10:44:30;95626.38;;;5.41;89.68
82458;BME280;72081;48.870;11.074;2024-02-23T10:46:58;95632.09;;;5.38;88.51
82458;BME280;72081;48.870;11.074;2024-02-23T10:49:24;95618.63;;;5.39;88.57
82458;BME280;72081;48.870;11.074;2024-02-23T10:51:53;95617.63;;;5.40;88.50
82458;BME280;72081;48.870;11.074;2024-02-23T10:54:19;95610.50;;;5.41;88.05
82458;BME280;72081;48.870;11.074;2024-02-23T10:56:47;95606.56;;;5.43;87.79
82458;BME280;72081;48.870;11.074;2024-02-23T10:59:12;95612.09;;;5.42;87.20
82458;BME280;72081;48.870;11.074;2024-02-23T11:01:38;95605.91;;;5.36;86.22
82458;BME280;72081;48.870;11.074;2024-02-23T11:04:06;95611.19;;;5.36;87.22
82458;BME280;72081;48.870;11.074;2024-02-23T11:06:33;95618.31;;;5.36;85.25
82458;BME280;72081;48.870;11.074;2024-02-23T11:09:06;95616.94;;;5.33;86.74
82458;BME280;72081;48.870;11.074;2024-02-23T11:11:33;95619.22;;;5.41;87.00
82458;BME280;72081;48.870;11.074;2024-02-23T11:14:02;95617.94;;;5.44;86.94
82458;BME280;72081;48.870;11.074;2024-02-23T11:16:28;95611.06;;;5.43;85.91
82458;BME280;72081;48.870;11.074;2024-02-23T11:19:06;95604.47;;;5.45;85.33
82458;BME280;72081;48.870;11.074;2024-02-23T11:21:36;95605.06;;;5.47;85.28
82458;BME280;72081;48.870;11.074;2024-02-23T11:24:06;95603.44;;;5.46;85.57
82458;BME280;72081;48.870;11.074;2024-02-23T11:26:32;95604.25;;;5.47;85.16
82458;BME280;72081;48.870;11.074;2024-02-23T11:28:59;95605.78;;;5.43;85.92
82458;BME280;72081;48.870;11.074;2024-02-23T11:31:28;95607.13;;;5.45;84.67
82458;BME280;72081;48.870;11.074;2024-02-23T11:33:55;95598.88;;;5.42;83.86
82458;BME280;72081;48.870;11.074;2024-02-23T11:36:24;95590.78;;;5.48;85.42
82458;BME280;72081;48.870;11.074;2024-02-23T11:38:53;95581.72;;;5.44;82.81
82458;BME280;72081;48.870;11.074;2024-02-23T11:41:22;95590.22;;;5.46;83.64
82458;BME280;72081;48.870;11.074;2024-02-23T11:43:49;95601.44;;;5.54;85.03
82458;BME280;72081;48.870;11.074;2024-02-23T11:46:18;95599.84;;;5.53;83.81
82458;BME280;72081;48.870;11.074;2024-02-23T11:48:44;95591.59;;;5.49;83.83
82458;BME280;72081;48.870;11.074;2024-02-23T11:51:10;95590.63;;;5.55;84.34
82458;BME280;72081;48.870;11.074;2024-02-23T11:53:39;95592.56;;;5.60;84.10
82458;BME280;72081;48.870;11.074;2024-02-23T11:56:07;95598.88;;;5.59;83.32
82458;BME280;72081;48.870;11.074;2024-02-23T11:58:33;95598.06;;;5.58;82.79
82458;BME280;72081;48.870;11.074;2024-02-23T12:01:00;95597.28;;;5.58;83.00
82458;BME280;72081;48.870;11.074;2024-02-23T12:03:28;95583.97;;;5.53;82.03
82458;BME280;72081;48.870;11.074;2024-02-23T12:05:53;95580.19;;;5.48;82.26
82458;BME280;72081;48.870;11.074;2024-02-23T12:08:19;95580.75;;;5.51;82.74
82458;BME280;72081;48.870;11.074;2024-02-23T12:10:44;95585.81;;;5.52;82.44
82458;BME280;72081;48.870;11.074;2024-02-23T12:13:09;95583.09;;;5.47;82.61
82458;BME280;72081;48.870;11.074;2024-02-23T12:15:35;95581.09;;;5.54;83.25
82458;BME280;72081;48.870;11.074;2024-02-23T12:18:03;95592.72;;;5.53;82.07
82458;BME280;72081;48.870;11.074;2024-02-23T12:20:28;95589.75;;;5.49;82.88
82458;BME280;72081;48.870;11.074;2024-02-23T12:22:57;95590.28;;;5.52;82.63
82458;BME280;72081;48.870;11.074;2024-02-23T12:25:23;95579.00;;;5.56;82.24
82458;BME280;72081;48.870;11.074;2024-02-23T12:27:54;95576.34;;;5.56;82.90
82458;BME280;72081;48.870;11.074;2024-02-23T12:30:19;95572.66;;;5.57;81.44
82458;BME280;72081;48.870;11.074;2024-02-23T12:32:45;95569.78;;;5.59;82.19
82458;BME280;72081;48.870;11.074;2024-02-23T12:35:11;95563.47;;;5.60;80.83
82458;BME280;72081;48.870;11.074;2024-02-23T12:37:37;95569.22;;;5.57;79.75
82458;BME280;72081;48.870;11.074;2024-02-23T12:40:06;95568.97;;;5.58;80.51
82458;BME280;72081;48.870;11.074;2024-02-23T12:42:31;95562.19;;;5.62;81.55
82458;BME280;72081;48.870;11.074;2024-02-23T12:44:56;95563.47;;;5.60;79.95
82458;BME280;72081;48.870;11.074;2024-02-23T12:47:21;95567.47;;;5.62;80.14
82458;BME280;72081;48.870;11.074;2024-02-23T12:49:47;95569.78;;;5.59;80.75
82458;BME280;72081;48.870;11.074;2024-02-23T12:52:12;95566.41;;;5.46;76.87
82458;BME280;72081;48.870;11.074;2024-02-23T12:54:37;95570.81;;;5.41;77.74
82458;BME280;72081;48.870;11.074;2024-02-23T12:57:03;95576.09;;;5.41;78.02